Time;durP1;ratioP1;P1;durP2;ratioP2;P2;SDS_P1;SDS_P2;PMS_P1;PMS_P2;Temp;Humidity;BMP_temperature;BMP_pressure;BME280_temperature;BME280_humidity;BME280_pressure;Samples;Min_cycle;Max_cycle;Signal;HPM_P1;HPM_P2
2023/06/18 00:01:03;;;;;;;;;;;23.50;48.20;;;;;;5052378;28;19929;-77
2023/06/18 00:03:30;;;;;;;;;;;23.50;48.20;;;;;;5055182;28;20507;-76
2023/06/18 00:05:56;;;;;;;;;;;23.40;48.20;;;;;;5056896;28;19932;-76
2023/06/18 00:08:23;;;;;;;;;;;23.40;48.30;;;;;;5060122;28;19982;-76
2023/06/18 00:10:50;;;;;;;;;;;23.40;48.40;;;;;;5057190;28;19931;-76
2023/06/18 00:13:16;;;;;;;;;;;23.30;48.50;;;;;;5055755;28;19939;-76
2023/06/18 00:15:44;;;;;;;;;;;23.30;48.50;;;;;;5048289;28;19932;-77
2023/06/18 00:18:11;;;;;;;;;;;23.30;48.50;;;;;;5060081;28;20489;-76
2023/06/18 00:20:37;;;;;;;;;;;23.20;48.50;;;;;;5057350;28;19940;-76
2023/06/18 00:23:04;;;;;;;;;;;23.20;48.60;;;;;;5060816;28;19936;-76
2023/06/18 00:25:31;;;;;;;;;;;23.20;48.60;;;;;;5052406;28;19935;-77
2023/06/18 00:27:57;;;;;;;;;;;23.10;48.60;;;;;;5051910;28;19943;-76
2023/06/18 00:30:24;;;;;;;;;;;23.10;48.70;;;;;;5054648;28;20398;-75
2023/06/18 00:32:52;;;;;;;;;;;23.10;48.70;;;;;;5052645;28;19929;-78
2023/06/18 00:35:18;;;;;;;;;;;23.00;48.80;;;;;;5058377;28;19964;-76
2023/06/18 00:37:45;;;;;;;;;;;23.00;48.90;;;;;;5051692;28;19928;-76
2023/06/18 00:40:12;;;;;;;;;;;23.00;48.90;;;;;;5054392;28;19932;-76
2023/06/18 00:42:39;;;;;;;;;;;22.90;48.90;;;;;;5046453;28;20462;-76
2023/06/18 00:45:08;;;;;;;;;;;22.90;49.00;;;;;;5047691;28;19968;-76
2023/06/18 00:47:35;;;;;;;;;;;22.90;49.10;;;;;;5047725;28;19971;-76
2023/06/18 00:50:05;;;;;;;;;;;22.90;49.20;;;;;;5047012;28;20001;-77
2023/06/18 00:52:34;;;;;;;;;;;22.80;49.20;;;;;;5046221;28;19939;-77
2023/06/18 00:55:01;;;;;;;;;;;22.80;49.30;;;;;;5047852;28;20387;-78
2023/06/18 00:57:30;;;;;;;;;;;22.70;49.30;;;;;;5048466;28;20393;-76
2023/06/18 00:59:57;;;;;;;;;;;22.70;49.30;;;;;;5046419;28;20027;-77
2023/06/18 01:02:25;;;;;;;;;;;22.70;49.40;;;;;;5049437;28;19982;-76
2023/06/18 01:04:55;;;;;;;;;;;22.70;49.60;;;;;;5047048;28;19939;-77
2023/06/18 01:07:23;;;;;;;;;;;22.60;49.60;;;;;;5047677;28;19928;-76
2023/06/18 01:09:53;;;;;;;;;;;22.60;49.60;;;;;;5048453;28;19932;-77
2023/06/18 01:12:20;;;;;;;;;;;22.60;49.70;;;;;;5045160;28;19929;-78
2023/06/18 01:14:50;;;;;;;;;;;22.50;49.80;;;;;;5046586;28;19986;-77
2023/06/18 01:17:18;;;;;;;;;;;22.50;49.80;;;;;;5060981;28;20009;-76
2023/06/18 01:19:47;;;;;;;;;;;22.40;49.80;;;;;;5052126;28;20319;-76
2023/06/18 01:22:19;;;;;;;;;;;22.40;49.90;;;;;;5046050;28;19937;-77
2023/06/18 01:24:50;;;;;;;;;;;22.40;49.90;;;;;;5044674;28;20417;-77
2023/06/18 01:27:21;;;;;;;;;;;22.30;50.00;;;;;;5047311;28;19990;-77
2023/06/18 01:29:48;;;;;;;;;;;22.30;50.00;;;;;;5052964;28;20048;-76
2023/06/18 01:32:15;;;;;;;;;;;22.30;50.00;;;;;;5045952;28;20955;-76
2023/06/18 01:34:42;;;;;;;;;;;22.20;50.10;;;;;;5051196;28;19929;-76
2023/06/18 01:37:14;;;;;;;;;;;22.20;50.20;;;;;;5052942;28;19976;-76
2023/06/18 01:39:47;;;;;;;;;;;22.20;50.20;;;;;;5050471;28;20090;-76
2023/06/18 01:42:16;;;;;;;;;;;22.10;50.20;;;;;;5051585;28;19932;-76
2023/06/18 01:44:45;;;;;;;;;;;22.10;50.40;;;;;;5052659;28;20143;-76
2023/06/18 01:47:12;;;;;;;;;;;22.10;50.50;;;;;;5058205;28;19932;-76
2023/06/18 01:49:40;;;;;;;;;;;22.00;50.40;;;;;;5055543;28;20029;-76
2023/06/18 01:52:08;;;;;;;;;;;22.00;50.50;;;;;;5052577;28;19980;-76
2023/06/18 01:54:36;;;;;;;;;;;22.00;50.60;;;;;;5045548;28;19929;-76
2023/06/18 01:57:04;;;;;;;;;;;22.00;50.70;;;;;;5051086;28;20465;-77
2023/06/18 01:59:32;;;;;;;;;;;21.90;50.60;;;;;;5050401;28;19929;-77
2023/06/18 02:01:58;;;;;;;;;;;21.90;50.80;;;;;;5049508;28;20015;-76
2023/06/18 02:04:25;;;;;;;;;;;21.80;50.90;;;;;;5051486;28;19940;-76
2023/06/18 02:06:51;;;;;;;;;;;21.80;51.00;;;;;;5052431;28;20006;-76
2023/06/18 02:09:18;;;;;;;;;;;21.80;51.00;;;;;;5055766;28;19989;-76
2023/06/18 02:11:44;;;;;;;;;;;21.80;50.90;;;;;;5050232;28;19928;-77
2023/06/18 02:14:11;;;;;;;;;;;21.70;51.00;;;;;;5052699;28;19936;-76
2023/06/18 02:16:39;;;;;;;;;;;21.70;51.00;;;;;;5049474;28;19932;-76
2023/06/18 02:19:06;;;;;;;;;;;21.70;51.00;;;;;;5051215;28;19928;-76
2023/06/18 02:21:32;;;;;;;;;;;21.60;51.00;;;;;;5049857;28;20496;-76
2023/06/18 02:23:59;;;;;;;;;;;21.60;51.20;;;;;;5050329;28;19935;-77
2023/06/18 02:26:27;;;;;;;;;;;21.60;51.10;;;;;;5051187;28;19943;-76
2023/06/18 02:28:53;;;;;;;;;;;21.60;51.40;;;;;;5048645;28;19936;-76
2023/06/18 02:31:20;;;;;;;;;;;21.50;51.20;;;;;;5048130;28;19932;-77
2023/06/18 02:33:48;;;;;;;;;;;21.50;51.20;;;;;;5052522;28;19947;-76
2023/06/18 02:36:17;;;;;;;;;;;21.50;51.30;;;;;;5051402;28;20307;-78
2023/06/18 02:38:43;;;;;;;;;;;21.40;51.40;;;;;;5048628;28;20493;-75
2023/06/18 02:41:10;;;;;;;;;;;21.40;51.40;;;;;;5046915;28;19990;-76
2023/06/18 02:43:36;;;;;;;;;;;21.40;51.50;;;;;;5048316;28;19940;-76
2023/06/18 02:46:03;;;;;;;;;;;21.30;51.40;;;;;;5048667;28;19929;-77
2023/06/18 02:48:30;;;;;;;;;;;21.30;51.50;;;;;;5049078;28;19929;-77
2023/06/18 02:50:58;;;;;;;;;;;21.30;51.60;;;;;;5051696;28;20486;-77
2023/06/18 02:53:24;;;;;;;;;;;21.30;51.50;;;;;;5053118;28;19928;-76
2023/06/18 02:55:51;;;;;;;;;;;21.20;51.60;;;;;;5049619;28;19940;-77
2023/06/18 02:58:18;;;;;;;;;;;21.20;51.70;;;;;;5052805;28;19932;-75
2023/06/18 03:00:44;;;;;;;;;;;21.20;51.70;;;;;;5045184;28;19995;-76
2023/06/18 03:03:14;;;;;;;;;;;21.20;51.80;;;;;;5051920;28;19935;-76
2023/06/18 03:05:41;;;;;;;;;;;21.10;51.70;;;;;;5048558;28;19929;-76
2023/06/18 03:08:09;;;;;;;;;;;21.10;51.80;;;;;;5053840;28;20463;-76
2023/06/18 03:10:35;;;;;;;;;;;21.10;51.80;;;;;;5053757;28;20532;-76
2023/06/18 03:13:02;;;;;;;;;;;21.10;51.90;;;;;;5044185;28;19936;-77
2023/06/18 03:15:28;;;;;;;;;;;21.00;51.90;;;;;;5048932;28;19928;-76
2023/06/18 03:17:55;;;;;;;;;;;21.00;52.00;;;;;;5047283;28;19928;-77
2023/06/18 03:20:23;;;;;;;;;;;21.00;52.10;;;;;;5048564;28;19932;-76
2023/06/18 03:22:49;;;;;;;;;;;21.00;52.10;;;;;;5048475;28;20439;-78
2023/06/18 03:25:19;;;;;;;;;;;20.90;52.20;;;;;;5049177;28;20451;-76
2023/06/18 03:27:45;;;;;;;;;;;20.90;52.20;;;;;;5047644;28;19928;-78
2023/06/18 03:30:12;;;;;;;;;;;20.90;52.30;;;;;;5050556;28;20519;-76
2023/06/18 03:32:39;;;;;;;;;;;20.80;52.40;;;;;;5050360;28;19928;-75
2023/06/18 03:35:06;;;;;;;;;;;20.80;52.40;;;;;;5046501;28;19932;-78
2023/06/18 03:37:33;;;;;;;;;;;20.80;52.40;;;;;;5049276;28;19935;-77
2023/06/18 03:40:00;;;;;;;;;;;20.80;52.50;;;;;;5047327;28;19932;-76
2023/06/18 03:42:27;;;;;;;;;;;20.80;52.50;;;;;;5048915;28;20623;-77
2023/06/18 03:44:54;;;;;;;;;;;20.70;52.50;;;;;;5058947;28;19932;-76
2023/06/18 03:47:21;;;;;;;;;;;20.70;52.60;;;;;;5053861;28;19994;-75
2023/06/18 03:49:48;;;;;;;;;;;20.70;52.60;;;;;;5056138;28;19936;-76
2023/06/18 03:52:14;;;;;;;;;;;20.60;52.70;;;;;;5056182;28;19928;-76
2023/06/18 03:54:41;;;;;;;;;;;20.60;52.70;;;;;;5048571;28;19990;-76
2023/06/18 03:57:08;;;;;;;;;;;20.60;52.80;;;;;;5049397;28;19932;-76
2023/06/18 03:59:36;;;;;;;;;;;20.60;52.80;;;;;;5058929;28;19959;-75
2023/06/18 04:02:03;;;;;;;;;;;20.50;52.80;;;;;;5051474;28;19936;-77
2023/06/18 04:04:29;;;;;;;;;;;20.50;52.90;;;;;;5054568;28;19929;-77
2023/06/18 04:06:56;;;;;;;;;;;20.50;52.90;;;;;;5049504;28;19928;-76
2023/06/18 04:09:23;;;;;;;;;;;20.50;53.00;;;;;;5054948;28;19929;-75
2023/06/18 04:11:49;;;;;;;;;;;20.40;53.00;;;;;;5048346;28;20704;-76
2023/06/18 04:14:16;;;;;;;;;;;20.40;53.10;;;;;;5049064;28;20369;-76
2023/06/18 04:16:45;;;;;;;;;;;20.40;53.20;;;;;;5050694;28;19932;-76
2023/06/18 04:19:11;;;;;;;;;;;20.40;53.20;;;;;;5054146;28;20391;-76
2023/06/18 04:21:38;;;;;;;;;;;20.40;53.30;;;;;;5055292;28;19978;-76
2023/06/18 04:24:05;;;;;;;;;;;20.40;53.40;;;;;;5052572;28;19935;-76
2023/06/18 04:26:32;;;;;;;;;;;20.30;53.40;;;;;;5055078;28;20391;-75
2023/06/18 04:28:58;;;;;;;;;;;20.40;53.60;;;;;;5053247;28;19929;-76
2023/06/18 04:31:25;;;;;;;;;;;20.30;53.60;;;;;;5053215;28;19928;-77
2023/06/18 04:33:53;;;;;;;;;;;20.30;53.70;;;;;;5051632;28;19933;-76
2023/06/18 04:36:19;;;;;;;;;;;20.30;53.80;;;;;;5047728;28;20283;-77
2023/06/18 04:38:46;;;;;;;;;;;20.30;53.70;;;;;;5053989;28;19932;-76
2023/06/18 04:41:13;;;;;;;;;;;20.20;53.80;;;;;;5055968;28;19936;-76
2023/06/18 04:43:39;;;;;;;;;;;20.20;53.80;;;;;;5056593;28;20457;-76
2023/06/18 04:46:06;;;;;;;;;;;20.20;53.80;;;;;;5052749;28;19932;-76
2023/06/18 04:48:34;;;;;;;;;;;20.20;53.90;;;;;;5057988;28;19929;-76
2023/06/18 04:51:02;;;;;;;;;;;20.20;53.90;;;;;;5052230;28;20796;-76
2023/06/18 04:53:29;;;;;;;;;;;20.20;54.00;;;;;;5056480;28;19932;-76
2023/06/18 04:55:55;;;;;;;;;;;20.20;54.10;;;;;;5048188;28;19935;-76
2023/06/18 04:58:22;;;;;;;;;;;20.20;54.10;;;;;;5059630;28;20474;-76
2023/06/18 05:00:49;;;;;;;;;;;20.20;54.20;;;;;;5048976;28;20352;-76
2023/06/18 05:03:16;;;;;;;;;;;20.20;54.20;;;;;;5048592;28;19928;-75
2023/06/18 05:05:42;;;;;;;;;;;20.10;54.20;;;;;;5048166;28;20063;-76
2023/06/18 05:08:11;;;;;;;;;;;20.10;54.20;;;;;;5049520;28;19933;-76
2023/06/18 05:10:37;;;;;;;;;;;20.10;54.30;;;;;;5044867;28;19940;-76
2023/06/18 05:13:04;;;;;;;;;;;20.10;54.40;;;;;;5048651;28;20499;-76
2023/06/18 05:15:30;;;;;;;;;;;20.10;54.40;;;;;;5045802;28;19998;-76
2023/06/18 05:17:57;;;;;;;;;;;20.10;54.50;;;;;;5045791;28;19929;-76
2023/06/18 05:20:23;;;;;;;;;;;20.10;54.50;;;;;;5047414;28;19978;-75
2023/06/18 05:22:50;;;;;;;;;;;20.10;54.70;;;;;;5049423;28;19932;-78
2023/06/18 05:25:18;;;;;;;;;;;20.10;54.80;;;;;;5046945;28;19939;-77
2023/06/18 05:27:45;;;;;;;;;;;20.10;54.80;;;;;;5046761;28;21751;-78
2023/06/18 05:30:11;;;;;;;;;;;20.10;54.90;;;;;;5043142;28;19958;-76
2023/06/18 05:32:38;;;;;;;;;;;20.10;55.00;;;;;;5049351;28;19963;-75
2023/06/18 05:35:05;;;;;;;;;;;20.10;55.00;;;;;;5047199;28;19929;-75
2023/06/18 05:37:31;;;;;;;;;;;20.10;55.10;;;;;;5044634;28;19933;-76
2023/06/18 05:39:58;;;;;;;;;;;20.10;55.10;;;;;;5051524;28;19933;-76
2023/06/18 05:42:26;;;;;;;;;;;20.10;55.10;;;;;;5059082;28;19936;-75
2023/06/18 05:44:52;;;;;;;;;;;20.10;55.10;;;;;;5054334;28;19934;-75
2023/06/18 05:47:19;;;;;;;;;;;20.10;55.10;;;;;;5049644;28;19979;-76
2023/06/18 05:49:45;;;;;;;;;;;20.10;55.20;;;;;;5056181;28;20328;-76
2023/06/18 05:52:12;;;;;;;;;;;20.10;55.20;;;;;;5048783;28;20010;-75
2023/06/18 05:54:39;;;;;;;;;;;20.10;55.20;;;;;;5053572;28;19933;-75
2023/06/18 05:57:06;;;;;;;;;;;20.10;55.20;;;;;;5051642;28;20381;-75
2023/06/18 05:59:34;;;;;;;;;;;20.10;55.30;;;;;;5052927;28;20314;-75
2023/06/18 06:02:00;;;;;;;;;;;20.10;55.30;;;;;;5050793;28;19939;-76
2023/06/18 06:04:27;;;;;;;;;;;20.10;55.40;;;;;;5046095;28;19983;-76
2023/06/18 06:06:54;;;;;;;;;;;20.10;55.40;;;;;;5052128;28;19928;-76
2023/06/18 06:09:20;;;;;;;;;;;20.10;55.40;;;;;;5057803;28;19929;-76
2023/06/18 06:11:47;;;;;;;;;;;20.10;55.40;;;;;;5054861;28;20469;-74
2023/06/18 06:14:15;;;;;;;;;;;20.20;55.40;;;;;;5048928;28;19958;-76
2023/06/18 06:16:43;;;;;;;;;;;20.20;55.40;;;;;;5052775;28;19956;-75
2023/06/18 06:19:10;;;;;;;;;;;20.20;55.40;;;;;;5048611;28;19936;-75
2023/06/18 06:21:36;;;;;;;;;;;20.20;55.30;;;;;;5050442;28;19928;-75
2023/06/18 06:24:03;;;;;;;;;;;20.20;55.40;;;;;;5053285;28;19944;-76
2023/06/18 06:26:30;;;;;;;;;;;20.20;55.40;;;;;;5051481;28;19929;-76
2023/06/18 06:28:56;;;;;;;;;;;20.20;55.30;;;;;;5048092;28;19929;-76
2023/06/18 06:31:23;;;;;;;;;;;20.30;55.40;;;;;;5046947;28;19978;-76
2023/06/18 06:33:51;;;;;;;;;;;20.20;55.30;;;;;;5048846;28;19938;-75
2023/06/18 06:36:18;;;;;;;;;;;20.30;55.30;;;;;;5047510;28;19928;-76
2023/06/18 06:38:44;;;;;;;;;;;20.30;55.40;;;;;;5049300;28;19932;-75
2023/06/18 06:41:11;;;;;;;;;;;20.30;55.30;;;;;;5050052;28;19933;-76
2023/06/18 06:43:37;;;;;;;;;;;20.30;55.40;;;;;;5047520;28;19937;-76
2023/06/18 06:46:04;;;;;;;;;;;20.30;55.30;;;;;;5045361;28;19928;-75
2023/06/18 06:48:30;;;;;;;;;;;20.30;55.30;;;;;;5050917;28;19928;-75
2023/06/18 06:50:58;;;;;;;;;;;20.30;55.40;;;;;;5053888;28;20007;-75
2023/06/18 06:53:25;;;;;;;;;;;20.40;55.40;;;;;;5052226;28;20526;-75
2023/06/18 06:55:51;;;;;;;;;;;20.40;55.40;;;;;;5052918;28;19981;-71
2023/06/18 06:58:18;;;;;;;;;;;20.40;55.40;;;;;;5058258;28;19936;-73
2023/06/18 07:00:45;;;;;;;;;;;20.40;55.40;;;;;;5044035;28;19994;-77
2023/06/18 07:03:11;;;;;;;;;;;20.40;55.50;;;;;;5050861;28;19964;-74
2023/06/18 07:05:38;;;;;;;;;;;20.40;55.40;;;;;;5046475;28;19932;-72
2023/06/18 07:08:06;;;;;;;;;;;20.40;55.60;;;;;;5048362;28;19933;-73
2023/06/18 07:10:33;;;;;;;;;;;20.40;55.50;;;;;;5042820;28;19928;-75
2023/06/18 07:12:59;;;;;;;;;;;20.50;55.60;;;;;;5048393;28;19938;-75
2023/06/18 07:15:26;;;;;;;;;;;20.50;55.60;;;;;;5047516;28;19932;-76
2023/06/18 07:17:52;;;;;;;;;;;20.50;55.70;;;;;;5044655;28;19928;-74
2023/06/18 07:20:19;;;;;;;;;;;20.50;55.50;;;;;;5044182;28;19932;-75
2023/06/18 07:22:46;;;;;;;;;;;20.60;55.40;;;;;;5048491;28;20301;-76
2023/06/18 07:25:14;;;;;;;;;;;20.60;55.40;;;;;;5049239;28;19982;-76
2023/06/18 07:27:40;;;;;;;;;;;20.60;55.30;;;;;;5043096;28;19928;-75
2023/06/18 07:30:07;;;;;;;;;;;20.60;55.30;;;;;;5047762;28;21919;-76
2023/06/18 07:32:34;;;;;;;;;;;20.60;55.40;;;;;;5051175;28;19925;-76
2023/06/18 07:35:00;;;;;;;;;;;20.70;55.40;;;;;;5053108;28;19928;-76
2023/06/18 07:37:27;;;;;;;;;;;20.70;55.40;;;;;;5053689;28;19932;-75
2023/06/18 07:39:54;;;;;;;;;;;20.70;55.60;;;;;;5052755;28;19974;-75
2023/06/18 07:42:21;;;;;;;;;;;20.70;56.10;;;;;;5052853;28;23606;-76
2023/06/18 07:44:48;;;;;;;;;;;20.70;55.60;;;;;;5049054;28;19933;-74
2023/06/18 07:47:15;;;;;;;;;;;20.80;55.60;;;;;;5054603;28;19928;-75
2023/06/18 07:49:41;;;;;;;;;;;20.80;55.50;;;;;;5050441;28;19937;-75
2023/06/18 07:52:08;;;;;;;;;;;20.80;55.40;;;;;;5050661;28;19983;-75
2023/06/18 07:54:35;;;;;;;;;;;20.80;55.40;;;;;;5048561;28;20425;-76
2023/06/18 07:57:01;;;;;;;;;;;20.90;55.40;;;;;;5048035;28;20458;-75
2023/06/18 07:59:29;;;;;;;;;;;20.90;55.20;;;;;;5051282;28;19928;-75
2023/06/18 08:01:56;;;;;;;;;;;20.90;55.30;;;;;;5049489;28;19934;-75
2023/06/18 08:04:22;;;;;;;;;;;20.90;55.30;;;;;;5050784;28;20391;-75
2023/06/18 08:06:50;;;;;;;;;;;20.90;55.10;;;;;;5051940;28;19932;-76
2023/06/18 08:09:16;;;;;;;;;;;21.00;55.20;;;;;;5046473;28;20663;-76
2023/06/18 08:11:43;;;;;;;;;;;21.00;55.20;;;;;;5052010;28;19929;-75
2023/06/18 08:14:11;;;;;;;;;;;21.10;55.20;;;;;;5055978;28;19940;-77
2023/06/18 08:16:39;;;;;;;;;;;21.10;55.10;;;;;;5047886;28;19933;-76
2023/06/18 08:19:05;;;;;;;;;;;21.10;55.10;;;;;;5050454;28;19929;-76
2023/06/18 08:21:32;;;;;;;;;;;21.20;55.30;;;;;;5052839;28;19932;-72
2023/06/18 08:23:58;;;;;;;;;;;21.20;55.30;;;;;;5058048;28;19978;-72
2023/06/18 08:26:25;;;;;;;;;;;21.30;55.20;;;;;;5057768;28;20431;-77
2023/06/18 08:28:51;;;;;;;;;;;21.30;55.30;;;;;;5051251;28;19932;-73
2023/06/18 08:31:20;;;;;;;;;;;21.30;55.30;;;;;;5051243;28;19974;-72
2023/06/18 08:33:48;;;;;;;;;;;21.30;55.40;;;;;;5060697;28;19936;-72
2023/06/18 08:36:14;;;;;;;;;;;21.40;55.30;;;;;;5057789;28;19932;-74
2023/06/18 08:38:41;;;;;;;;;;;21.40;55.20;;;;;;5058652;28;19932;-71
2023/06/18 08:41:09;;;;;;;;;;;21.50;55.50;;;;;;5054996;28;19975;-74
2023/06/18 08:43:37;;;;;;;;;;;21.50;55.30;;;;;;5056934;28;19929;-73
2023/06/18 08:46:09;;;;;;;;;;;21.50;55.10;;;;;;5053717;28;20028;-72
2023/06/18 08:48:37;;;;;;;;;;;21.60;55.10;;;;;;5057432;28;19950;-73
2023/06/18 08:51:06;;;;;;;;;;;21.60;55.00;;;;;;5054362;28;19946;-72
2023/06/18 08:53:38;;;;;;;;;;;21.70;55.00;;;;;;5061001;28;20045;-74
2023/06/18 08:56:05;;;;;;;;;;;21.80;55.00;;;;;;5051905;28;19929;-72
2023/06/18 08:58:34;;;;;;;;;;;21.80;54.90;;;;;;5065941;28;19932;-74
2023/06/18 09:01:02;;;;;;;;;;;21.90;54.90;;;;;;5056957;28;19951;-72
2023/06/18 09:03:28;;;;;;;;;;;21.90;54.60;;;;;;5051666;28;19929;-72
2023/06/18 09:05:55;;;;;;;;;;;22.00;54.50;;;;;;5051255;28;19928;-75
2023/06/18 09:08:23;;;;;;;;;;;22.00;54.30;;;;;;5060211;28;20306;-73
2023/06/18 09:10:50;;;;;;;;;;;22.10;54.20;;;;;;5045067;28;19932;-70
2023/06/18 09:13:17;;;;;;;;;;;22.10;54.20;;;;;;5044492;28;19975;-73
2023/06/18 09:15:43;;;;;;;;;;;22.20;54.00;;;;;;5044572;28;19932;-73
2023/06/18 09:18:10;;;;;;;;;;;22.20;53.80;;;;;;5057105;28;19932;-72
2023/06/18 09:20:37;;;;;;;;;;;22.30;53.70;;;;;;5060317;28;19981;-72
2023/06/18 09:23:07;;;;;;;;;;;22.30;53.50;;;;;;5054591;28;19939;-74
2023/06/18 09:25:35;;;;;;;;;;;22.40;53.30;;;;;;5051085;28;19929;-74
2023/06/18 09:28:02;;;;;;;;;;;22.40;53.10;;;;;;5048413;28;19925;-72
2023/06/18 09:30:29;;;;;;;;;;;22.50;53.20;;;;;;5051383;28;20034;-78
2023/06/18 09:32:57;;;;;;;;;;;22.50;53.00;;;;;;5042984;28;20055;-71
2023/06/18 09:35:24;;;;;;;;;;;22.60;53.00;;;;;;5047921;28;19938;-74
2023/06/18 09:37:50;;;;;;;;;;;22.60;52.70;;;;;;5047107;28;19947;-70
2023/06/18 09:40:17;;;;;;;;;;;22.70;52.40;;;;;;5045977;28;19932;-74
2023/06/18 09:42:45;;;;;;;;;;;22.80;52.20;;;;;;5044932;28;19925;-72
2023/06/18 09:45:14;;;;;;;;;;;22.80;52.20;;;;;;5045658;28;19925;-75
2023/06/18 09:47:41;;;;;;;;;;;22.90;52.00;;;;;;5048454;28;19977;-72
2023/06/18 09:50:09;;;;;;;;;;;23.00;52.10;;;;;;5045901;28;20693;-73
2023/06/18 09:52:41;;;;;;;;;;;23.00;52.10;;;;;;5048082;28;20474;-74
2023/06/18 09:55:25;;;;;;;;;;;23.10;52.00;;;;;;5046329;28;19940;-73
2023/06/18 09:57:53;;;;;;;;;;;23.20;51.40;;;;;;5047149;28;20018;-76
2023/06/18 10:00:20;;;;;;;;;;;23.30;50.80;;;;;;5046692;28;20551;-76
2023/06/18 10:02:46;;;;;;;;;;;23.40;50.70;;;;;;5054241;28;19929;-73
2023/06/18 10:05:13;;;;;;;;;;;23.50;50.60;;;;;;5055947;28;19932;-72
2023/06/18 10:07:40;;;;;;;;;;;23.50;50.60;;;;;;5047115;28;20283;-69
2023/06/18 10:10:13;;;;;;;;;;;23.60;50.30;;;;;;5048867;28;19939;-73
2023/06/18 10:12:41;;;;;;;;;;;23.70;50.10;;;;;;5049875;28;20390;-72
2023/06/18 10:15:10;;;;;;;;;;;23.80;49.60;;;;;;5052579;28;19929;-74
2023/06/18 10:17:37;;;;;;;;;;;23.90;49.70;;;;;;5055128;28;19928;-74
2023/06/18 10:20:04;;;;;;;;;;;23.90;49.50;;;;;;5052295;28;19928;-73
2023/06/18 10:22:34;;;;;;;;;;;24.10;49.30;;;;;;5050654;28;19943;-74
2023/06/18 10:25:02;;;;;;;;;;;24.10;49.00;;;;;;5056061;28;19989;-70
2023/06/18 10:27:29;;;;;;;;;;;24.20;48.80;;;;;;5053427;28;19929;-72
2023/06/18 10:29:57;;;;;;;;;;;24.30;47.90;;;;;;5053065;28;19928;-71
2023/06/18 10:32:26;;;;;;;;;;;24.30;47.40;;;;;;5053305;28;19943;-71
2023/06/18 10:34:53;;;;;;;;;;;24.50;47.60;;;;;;5049939;28;19928;-71
2023/06/18 10:37:19;;;;;;;;;;;24.50;47.40;;;;;;5047432;28;19936;-75
2023/06/18 10:39:46;;;;;;;;;;;24.60;47.40;;;;;;5057763;28;19955;-73
2023/06/18 10:42:14;;;;;;;;;;;24.70;47.20;;;;;;5052321;28;19933;-73
2023/06/18 10:44:50;;;;;;;;;;;24.80;47.10;;;;;;5060016;28;19928;-72
2023/06/18 10:47:17;;;;;;;;;;;24.90;46.70;;;;;;5045080;28;19932;-74
2023/06/18 10:50:09;;;;;;;;;;;24.90;46.40;;;;;;5049404;28;20295;-77
2023/06/18 10:52:36;;;;;;;;;;;25.00;46.20;;;;;;5052881;28;20301;-73
2023/06/18 10:55:06;;;;;;;;;;;25.10;46.00;;;;;;5051440;28;20352;-73
2023/06/18 10:57:32;;;;;;;;;;;25.20;45.80;;;;;;5046930;28;20726;-74
2023/06/18 10:59:59;;;;;;;;;;;25.30;45.70;;;;;;5045231;28;19929;-73
2023/06/18 11:02:35;;;;;;;;;;;25.40;45.30;;;;;;5054544;28;19939;-71
2023/06/18 11:05:03;;;;;;;;;;;25.40;45.20;;;;;;5051820;28;19934;-72
2023/06/18 11:07:31;;;;;;;;;;;25.50;44.90;;;;;;5052815;28;19932;-75
2023/06/18 11:09:58;;;;;;;;;;;25.60;44.50;;;;;;5047030;28;19936;-73
2023/06/18 11:12:25;;;;;;;;;;;25.70;44.40;;;;;;5058574;28;19928;-73
2023/06/18 11:15:04;;;;;;;;;;;25.80;44.50;;;;;;5050471;28;20419;-72
2023/06/18 11:17:32;;;;;;;;;;;25.80;44.30;;;;;;5058443;28;20578;-74
2023/06/18 11:19:58;;;;;;;;;;;25.90;44.00;;;;;;5051356;28;20474;-73
2023/06/18 11:22:27;;;;;;;;;;;26.00;43.60;;;;;;5049354;28;19929;-74
2023/06/18 11:24:55;;;;;;;;;;;26.00;42.50;;;;;;5050903;28;19928;-74
2023/06/18 11:27:22;;;;;;;;;;;26.10;42.40;;;;;;5051894;28;19933;-72
2023/06/18 11:29:49;;;;;;;;;;;26.20;42.70;;;;;;5053194;28;19932;-72
2023/06/18 11:32:15;;;;;;;;;;;26.30;42.80;;;;;;5044551;28;19933;-72
2023/06/18 11:34:42;;;;;;;;;;;26.30;42.80;;;;;;5046065;28;19932;-73
2023/06/18 11:37:09;;;;;;;;;;;26.40;42.70;;;;;;5051552;28;20591;-75
2023/06/18 11:39:39;;;;;;;;;;;26.40;42.50;;;;;;5054999;28;20621;-73
2023/06/18 11:42:13;;;;;;;;;;;26.60;42.70;;;;;;5052619;28;19928;-72
2023/06/18 11:44:45;;;;;;;;;;;26.60;42.50;;;;;;5048461;28;19935;-73
2023/06/18 11:47:11;;;;;;;;;;;26.70;42.10;;;;;;5065347;28;19940;-77
2023/06/18 11:49:41;;;;;;;;;;;26.70;41.60;;;;;;5055519;28;19936;-72
2023/06/18 11:52:08;;;;;;;;;;;26.80;41.60;;;;;;5051094;28;20021;-73
2023/06/18 11:54:35;;;;;;;;;;;26.90;41.70;;;;;;5054089;28;20359;-74
2023/06/18 11:57:03;;;;;;;;;;;27.00;41.20;;;;;;5059372;28;19932;-73
2023/06/18 11:59:29;;;;;;;;;;;27.00;41.10;;;;;;5053748;28;19936;-74
2023/06/18 12:01:56;;;;;;;;;;;27.10;41.00;;;;;;5046442;28;20410;-71
2023/06/18 12:04:22;;;;;;;;;;;27.20;41.20;;;;;;5050358;28;19933;-73
2023/06/18 12:06:49;;;;;;;;;;;27.30;41.10;;;;;;5049180;28;19933;-77
2023/06/18 12:09:15;;;;;;;;;;;27.30;41.10;;;;;;5048085;28;19936;-77
2023/06/18 12:11:53;;;;;;;;;;;27.40;41.10;;;;;;5050964;28;19936;-74
2023/06/18 12:14:23;;;;;;;;;;;27.50;41.10;;;;;;5050063;28;19932;-76
2023/06/18 12:16:52;;;;;;;;;;;27.50;40.90;;;;;;5049184;28;19932;-73
2023/06/18 12:19:19;;;;;;;;;;;27.60;40.50;;;;;;5046965;28;19933;-77
2023/06/18 12:21:46;;;;;;;;;;;27.70;40.40;;;;;;5050625;28;20424;-72
2023/06/18 12:24:13;;;;;;;;;;;27.70;40.10;;;;;;5047314;28;19932;-74
2023/06/18 12:26:39;;;;;;;;;;;27.80;40.00;;;;;;5050401;28;19982;-74
2023/06/18 12:29:06;;;;;;;;;;;27.80;40.10;;;;;;5049799;28;20448;-76
2023/06/18 12:31:34;;;;;;;;;;;27.90;40.20;;;;;;5051262;28;20025;-72
2023/06/18 12:34:00;;;;;;;;;;;28.00;39.90;;;;;;5045144;28;20460;-72
2023/06/18 12:36:27;;;;;;;;;;;28.00;39.90;;;;;;5052379;28;19928;-74
2023/06/18 12:38:54;;;;;;;;;;;28.00;39.80;;;;;;5054534;28;20031;-74
2023/06/18 12:41:21;;;;;;;;;;;28.10;39.60;;;;;;5053045;28;19928;-74
2023/06/18 12:43:48;;;;;;;;;;;28.10;39.50;;;;;;5063867;28;19935;-74
2023/06/18 12:46:23;;;;;;;;;;;28.10;39.40;;;;;;5052591;28;19928;-73
2023/06/18 12:48:52;;;;;;;;;;;28.10;39.40;;;;;;5050305;28;19928;-77
2023/06/18 12:51:19;;;;;;;;;;;28.20;39.50;;;;;;5051956;28;20667;-76
2023/06/18 12:53:46;;;;;;;;;;;28.30;39.60;;;;;;5059870;28;20726;-72
2023/06/18 12:56:16;;;;;;;;;;;28.30;39.60;;;;;;5059499;28;20527;-75
2023/06/18 12:58:43;;;;;;;;;;;28.40;39.50;;;;;;5051356;28;19933;-75
2023/06/18 13:01:10;;;;;;;;;;;28.40;39.40;;;;;;5055394;28;19928;-72
2023/06/18 13:03:36;;;;;;;;;;;28.50;39.40;;;;;;5054890;28;19932;-72
2023/06/18 13:06:05;;;;;;;;;;;28.60;39.30;;;;;;5060160;28;19932;-77
2023/06/18 13:08:31;;;;;;;;;;;28.60;39.10;;;;;;5055840;28;19962;-75
2023/06/18 13:10:58;;;;;;;;;;;28.70;39.00;;;;;;5052087;28;19935;-74
2023/06/18 13:13:24;;;;;;;;;;;28.70;38.90;;;;;;5059651;28;19928;-77
2023/06/18 13:15:52;;;;;;;;;;;28.80;38.70;;;;;;5059145;28;19928;-76
2023/06/18 13:18:19;;;;;;;;;;;28.90;38.70;;;;;;5058325;28;20421;-74
2023/06/18 13:20:46;;;;;;;;;;;28.90;38.70;;;;;;5057042;28;19928;-74
2023/06/18 13:23:14;;;;;;;;;;;29.00;38.60;;;;;;5058946;28;19924;-73
2023/06/18 13:25:41;;;;;;;;;;;29.10;38.50;;;;;;5055094;28;19929;-73
2023/06/18 13:28:08;;;;;;;;;;;29.20;38.50;;;;;;5057242;28;19925;-75
2023/06/18 13:30:34;;;;;;;;;;;29.30;38.40;;;;;;5049613;28;20699;-75
2023/06/18 13:33:01;;;;;;;;;;;29.30;38.10;;;;;;5054134;28;20041;-75
2023/06/18 13:35:30;;;;;;;;;;;29.40;38.10;;;;;;5047203;28;19929;-73
2023/06/18 13:37:56;;;;;;;;;;;29.40;37.90;;;;;;5060887;28;19934;-71
2023/06/18 13:40:24;;;;;;;;;;;29.50;37.80;;;;;;5051833;28;20869;-74
2023/06/18 13:42:51;;;;;;;;;;;29.50;37.60;;;;;;5058374;28;20618;-76
2023/06/18 13:45:18;;;;;;;;;;;29.60;37.70;;;;;;5057960;28;19974;-76
2023/06/18 13:47:46;;;;;;;;;;;29.70;37.50;;;;;;5058916;28;20209;-73
2023/06/18 13:50:13;;;;;;;;;;;29.80;37.00;;;;;;5046265;28;19928;-75
2023/06/18 13:52:39;;;;;;;;;;;29.80;37.00;;;;;;5056497;28;19928;-72
2023/06/18 13:55:06;;;;;;;;;;;29.90;37.00;;;;;;5053054;28;20021;-74
2023/06/18 13:57:34;;;;;;;;;;;29.90;36.80;;;;;;5050673;28;20416;-74
2023/06/18 14:00:02;;;;;;;;;;;30.00;36.70;;;;;;5054729;28;20116;-74
2023/06/18 14:02:28;;;;;;;;;;;30.10;36.80;;;;;;5047786;28;20279;-73
2023/06/18 14:04:55;;;;;;;;;;;30.10;36.70;;;;;;5053741;28;19974;-76
2023/06/18 14:07:21;;;;;;;;;;;30.20;36.60;;;;;;5054387;28;19981;-74
2023/06/18 14:09:48;;;;;;;;;;;30.30;36.20;;;;;;5054015;28;20302;-75
2023/06/18 14:12:15;;;;;;;;;;;30.30;35.70;;;;;;5047341;28;19928;-76
2023/06/18 14:14:44;;;;;;;;;;;30.40;35.60;;;;;;5056128;28;19935;-73
2023/06/18 14:17:11;;;;;;;;;;;30.40;36.00;;;;;;5054870;28;19939;-74